Hartford Brainard Airport Hartford US
ICAO: KHFD
IATA: HFD
Category: Medium
Scheduled Services: No

Elevation: 18 ft
TransAlt. 18000 ft.

Airport Communications:
BRADLEY APP/DEP:127.8
ATIS:126.45
BRADLEY CLNC DEL:121.6
CTAF:119.6
GND:121.6
BRAINARD TWR:119.6
UNICOM:122.95

KHFD Zoom In..

If Map Doesn't Load, Click Here

Runways:

(A) RW 02 length 4417 ft width 150 ft
---- / hdg 24

(B) RW 11 length 2314 ft width 71 ft
---- / hdg 114

(C) RW 20 length 4417 ft width 150 ft
---- / hdg 204

(D) RW 29 length 2314 ft width 71 ft
---- / hdg 294

Location; KHFD
Day. 21 / Time. 13.53 Zulu
* Altimeter: 30.25
* Temperature: 19° c. 66.2°f.
* Wind from: 150° Speed 07 kn.
Dewpoint: 15° c.
Visibility: 10 Statute Miles.
Clouds: Few 2500 ft.
Clouds: Broken 3200 ft.
Clouds: Overcast 4300 ft.

KHFD 211353Z 15007KT 10SM FEW025 BKN032 OVC043 19/15 A3025 RMK AO2 SLP243 T01890150


Wind From 150°
Speed 07 kn.

 
 
jpsmedia.com for Web Design worldairports.se 2018   terms of use